Time;durP1;ratioP1;P1;durP2;ratioP2;P2;SDS_P1;SDS_P2;PMS_P1;PMS_P2;Temp;Humidity;BMP_temperature;BMP_pressure;BME280_temperature;BME280_humidity;BME280_pressure;Samples;Min_cycle;Max_cycle;Signal;HPM_P1;HPM_P2
2023/09/12 00:00:33;;;;;;;2.97;2.00;;;;;;;19.12;55.77;100031.72;5077672;28;20036;-66
2023/09/12 00:02:59;;;;;;;1.67;1.58;;;;;;;19.06;55.30;100027.19;5078090;28;20045;-66
2023/09/12 00:05:24;;;;;;;7.78;1.98;;;;;;;18.94;55.02;100028.03;5077607;28;20115;-66
2023/09/12 00:07:53;;;;;;;3.40;1.95;;;;;;;18.67;55.76;100029.91;5078507;28;20040;-64
2023/09/12 00:10:18;;;;;;;2.22;1.70;;;;;;;18.47;56.68;100027.19;5077857;28;20032;-66
2023/09/12 00:12:43;;;;;;;3.15;1.80;;;;;;;18.52;56.87;100030.91;5077557;28;20376;-66
2023/09/12 00:15:09;;;;;;;1.92;1.60;;;;;;;18.56;56.42;100033.16;5078014;28;20217;-64
2023/09/12 00:17:34;;;;;;;2.90;2.05;;;;;;;18.62;56.51;100035.06;5078156;28;20186;-64
2023/09/12 00:20:00;;;;;;;2.90;2.00;;;;;;;18.54;56.41;100043.28;5077227;28;20044;-66
2023/09/12 00:22:25;;;;;;;1.77;1.48;;;;;;;18.49;56.53;100039.34;5077808;28;20209;-66
2023/09/12 00:24:51;;;;;;;3.78;1.90;;;;;;;18.42;56.88;100045.75;5078268;28;20042;-64
2023/09/12 00:27:16;;;;;;;4.38;1.63;;;;;;;18.29;57.26;100041.22;5078007;28;20033;-66
2023/09/12 00:29:41;;;;;;;2.33;1.50;;;;;;;18.34;57.95;100041.41;5077760;28;20051;-66
2023/09/12 00:32:07;;;;;;;3.10;1.50;;;;;;;18.24;58.49;100043.69;5059879;28;20276;-67
2023/09/12 00:34:32;;;;;;;4.82;1.67;;;;;;;18.20;59.05;100042.44;5078039;28;20032;-66
2023/09/12 00:36:58;;;;;;;1.45;1.35;;;;;;;18.13;59.61;100042.41;5077953;28;20054;-66
2023/09/12 00:39:23;;;;;;;2.95;1.42;;;;;;;18.16;59.53;100047.38;5077933;28;20233;-66
2023/09/12 00:41:48;;;;;;;2.92;1.60;;;;;;;18.17;59.17;100040.16;5078170;28;20309;-63
2023/09/12 00:44:14;;;;;;;3.05;1.90;;;;;;;18.09;59.00;100046.53;5078100;28;20234;-65
2023/09/12 00:46:40;;;;;;;3.63;1.80;;;;;;;18.20;58.77;100047.78;5078233;28;20036;-64
2023/09/12 00:49:07;;;;;;;3.75;1.63;;;;;;;18.12;59.18;100048.81;5078235;28;20109;-66
2023/09/12 00:51:34;;;;;;;2.63;1.83;;;;;;;18.24;59.03;100050.91;5068731;28;20361;-66
2023/09/12 00:54:00;;;;;;;4.50;2.20;;;;;;;18.13;59.54;100049.63;5049950;28;20028;-65
2023/09/12 00:56:26;;;;;;;4.05;2.03;;;;;;;18.11;59.04;100044.47;5057710;28;20131;-66
2023/09/12 00:58:52;;;;;;;2.90;1.70;;;;;;;18.11;58.71;100046.34;5058003;28;20041;-64
2023/09/12 01:01:19;;;;;;;4.35;1.75;;;;;;;18.01;58.82;100052.09;5057217;28;20032;-64
2023/09/12 01:03:44;;;;;;;3.80;1.80;;;;;;;18.10;58.23;100047.38;5057153;28;20033;-66
2023/09/12 01:06:10;;;;;;;4.75;2.40;;;;;;;18.09;58.51;100054.56;5057511;28;20347;-66
2023/09/12 01:08:39;;;;;;;3.42;2.10;;;;;;;18.03;58.71;100044.66;5058241;28;20100;-66
2023/09/12 01:11:04;;;;;;;2.40;2.08;;;;;;;18.11;58.65;100052.53;5057841;28;20299;-66
2023/09/12 01:13:30;;;;;;;3.97;2.35;;;;;;;18.08;58.62;100049.41;5057085;28;20051;-64
2023/09/12 01:15:55;;;;;;;6.15;2.00;;;;;;;17.95;59.02;100046.72;5056696;28;20258;-66
2023/09/12 01:18:21;;;;;;;4.22;2.13;;;;;;;18.06;58.89;100054.16;5056316;28;20426;-64
2023/09/12 01:21:12;;;;;;;2.10;1.90;;;;;;;17.99;59.40;100053.31;5055631;28;20045;-66
2023/09/12 01:23:59;;;;;;;3.15;1.83;;;;;;;18.05;59.18;100057.88;5055219;28;20082;-66
2023/09/12 01:26:36;;;;;;;4.10;1.80;;;;;;;18.14;58.53;100057.47;5055458;28;20044;-64
2023/09/12 01:29:04;;;;;;;2.47;2.00;;;;;;;18.16;58.72;100058.09;5053684;28;20041;-66
2023/09/12 01:31:31;;;;;;;3.35;2.08;;;;;;;18.11;58.91;100063.25;5056058;28;20060;-64
2023/09/12 01:33:57;;;;;;;2.85;1.90;;;;;;;18.16;59.01;100058.09;5056668;28;20025;-66
2023/09/12 01:36:22;;;;;;;4.25;2.42;;;;;;;18.17;59.21;100057.06;5055852;28;20036;-64
2023/09/12 01:38:48;;;;;;;4.63;2.47;;;;;;;18.23;59.30;100063.47;5056035;28;20068;-64
2023/09/12 01:41:13;;;;;;;3.63;1.83;;;;;;;18.25;58.75;100058.72;5055892;28;20135;-66
2023/09/12 01:43:41;;;;;;;3.83;2.10;;;;;;;18.11;58.84;100059.72;5055360;28;20101;-65
2023/09/12 01:46:07;;;;;;;3.28;2.15;;;;;;;18.08;59.05;100055.59;5055978;28;20040;-64
2023/09/12 01:48:36;;;;;;;2.55;1.80;;;;;;;18.08;59.35;100060.13;5057296;28;20138;-64
2023/09/12 01:51:02;;;;;;;2.85;2.03;;;;;;;18.07;59.26;100067.34;5059263;28;20047;-66
2023/09/12 01:53:29;;;;;;;2.80;1.70;;;;;;;18.03;59.58;100070.66;5075947;28;20298;-64
2023/09/12 01:55:57;;;;;;;5.10;2.20;;;;;;;17.91;59.93;100074.94;5075547;28;20094;-66
2023/09/12 01:58:24;;;;;;;4.07;1.90;;;;;;;17.95;59.99;100073.50;5075209;28;20106;-64
2023/09/12 02:00:50;;;;;;;2.95;1.90;;;;;;;17.92;60.77;100072.06;5076139;28;20040;-66
2023/09/12 02:03:15;;;;;;;2.95;2.13;;;;;;;17.80;61.58;100074.50;5075316;28;20253;-66
2023/09/12 02:05:41;;;;;;;6.55;2.47;;;;;;;17.83;61.64;100076.78;5075867;28;20032;-64
2023/09/12 02:08:06;;;;;;;3.38;1.98;;;;;;;17.91;61.58;100077.63;5075863;28;20073;-64
2023/09/12 02:10:32;;;;;;;3.45;2.15;;;;;;;17.75;62.40;100068.91;5075639;28;20329;-64
2023/09/12 02:12:57;;;;;;;4.18;2.05;;;;;;;17.78;62.38;100071.19;5076050;28;20028;-65
2023/09/12 02:15:23;;;;;;;3.67;1.98;;;;;;;17.80;61.99;100069.13;5075230;28;20620;-66
2023/09/12 02:17:50;;;;;;;2.72;1.83;;;;;;;17.82;61.93;100068.94;5075836;28;20081;-66
2023/09/12 02:20:15;;;;;;;4.90;2.10;;;;;;;17.79;61.96;100063.97;5075113;28;20077;-66
2023/09/12 02:22:41;;;;;;;3.78;1.85;;;;;;;17.92;61.22;100061.34;5075777;28;20329;-66
2023/09/12 02:25:08;;;;;;;2.55;2.00;;;;;;;17.89;60.92;100066.28;5075585;28;20067;-66
2023/09/12 02:27:33;;;;;;;1.95;1.70;;;;;;;17.87;60.31;100066.47;5075150;28;20037;-66
2023/09/12 02:29:59;;;;;;;2.45;1.70;;;;;;;17.78;60.72;100065.00;5075460;28;20040;-64
2023/09/12 02:32:24;;;;;;;2.50;1.90;;;;;;;17.72;60.57;100066.63;5075742;28;20037;-66
2023/09/12 02:34:50;;;;;;;3.55;1.73;;;;;;;17.82;60.25;100066.25;5075307;28;20048;-66
2023/09/12 02:37:15;;;;;;;4.97;2.17;;;;;;;17.84;60.29;100069.56;5075621;28;20077;-64
2023/09/12 02:39:41;;;;;;;3.55;2.08;;;;;;;17.92;59.88;100071.22;5075310;28;20055;-64
2023/09/12 02:42:06;;;;;;;4.28;1.95;;;;;;;17.77;60.75;100071.38;5076132;28;20381;-66
2023/09/12 02:44:32;;;;;;;5.60;2.05;;;;;;;17.82;61.27;100071.63;5075201;28;20043;-66
2023/09/12 02:46:57;;;;;;;6.75;1.98;;;;;;;17.69;61.55;100072.41;5075455;28;20064;-64
2023/09/12 02:49:23;;;;;;;6.85;2.40;;;;;;;17.74;61.18;100072.63;5074935;28;20078;-64
2023/09/12 02:51:48;;;;;;;4.38;2.08;;;;;;;17.73;61.51;100075.50;5075014;28;20045;-66
2023/09/12 02:54:13;;;;;;;3.03;2.22;;;;;;;17.64;61.59;100066.75;5075406;28;20039;-64
2023/09/12 02:56:39;;;;;;;5.38;2.05;;;;;;;17.66;61.96;100071.91;5076116;28;20187;-66
2023/09/12 02:59:05;;;;;;;5.15;2.30;;;;;;;17.62;62.71;100071.47;5076360;28;20040;-64
2023/09/12 03:01:30;;;;;;;4.95;1.92;;;;;;;17.67;62.03;100077.09;5076035;28;20028;-66
2023/09/12 03:03:58;;;;;;;5.72;2.13;;;;;;;17.69;61.88;100074.25;5076626;28;20045;-64
2023/09/12 03:06:23;;;;;;;5.30;2.40;;;;;;;17.60;62.69;100072.69;5075299;28;20060;-66
2023/09/12 03:08:49;;;;;;;4.57;2.72;;;;;;;17.63;62.58;100080.34;5074941;28;20241;-66
2023/09/12 03:11:14;;;;;;;7.38;2.30;;;;;;;17.59;62.40;100079.09;5075326;28;20334;-65
2023/09/12 03:13:41;;;;;;;3.67;2.50;;;;;;;17.42;63.53;100075.91;5074868;28;20029;-66
2023/09/12 03:16:14;;;;;;;2.25;1.98;;;;;;;17.43;63.34;100083.75;5078209;28;20055;-64
2023/09/12 03:18:39;;;;;;;5.43;2.17;;;;;;;17.49;63.38;100079.44;5070632;28;20349;-66
2023/09/12 03:21:05;;;;;;;3.47;1.92;;;;;;;17.54;63.32;100085.84;5078349;28;20024;-64
2023/09/12 03:23:31;;;;;;;3.92;1.90;;;;;;;17.67;62.81;100087.81;5078719;28;20075;-64
2023/09/12 03:26:07;;;;;;;3.70;2.15;;;;;;;17.72;62.73;100085.38;5079087;28;20383;-64
2023/09/12 03:28:32;;;;;;;3.17;2.20;;;;;;;17.66;63.00;100086.16;5079179;28;20043;-66
2023/09/12 03:31:07;;;;;;;4.07;2.17;;;;;;;17.62;63.16;100086.72;5079029;28;20048;-66
2023/09/12 03:33:32;;;;;;;3.90;2.13;;;;;;;17.44;63.67;100085.41;5079264;28;20415;-66
2023/09/12 03:35:58;;;;;;;7.80;2.55;;;;;;;17.51;63.42;100090.78;5079442;28;20335;-65
2023/09/12 03:38:23;;;;;;;10.75;3.28;;;;;;;17.57;63.18;100098.03;5079651;28;20044;-66
2023/09/12 03:40:49;;;;;;;14.50;3.83;;;;;;;17.55;63.40;100092.03;5079216;28;20265;-66
2023/09/12 03:43:14;;;;;;;9.68;3.97;;;;;;;17.54;62.96;100098.41;5080025;28;20040;-66
2023/09/12 03:45:40;;;;;;;10.57;4.25;;;;;;;17.40;63.08;100099.38;5079252;28;20044;-65
2023/09/12 03:48:05;;;;;;;11.85;5.00;;;;;;;17.39;62.88;100098.56;5078583;28;20112;-64
2023/09/12 03:50:31;;;;;;;10.63;4.30;;;;;;;17.39;63.26;100103.06;5079256;28;20048;-64
2023/09/12 03:52:56;;;;;;;13.73;5.30;;;;;;;17.38;63.27;100112.97;5078267;28;20063;-64
2023/09/12 03:55:22;;;;;;;15.23;5.10;;;;;;;17.30;63.37;100107.75;5078226;28;20079;-63
2023/09/12 03:57:47;;;;;;;8.60;4.90;;;;;;;17.34;63.13;100110.88;5077570;28;20048;-66
2023/09/12 04:00:13;;;;;;;11.50;5.57;;;;;;;17.43;62.97;100107.84;5078265;28;20044;-66
2023/09/12 04:02:39;;;;;;;14.00;4.75;;;;;;;17.49;63.11;100111.56;5078403;28;20044;-64
2023/09/12 04:05:04;;;;;;;12.40;4.55;;;;;;;17.31;62.91;100119.28;5077944;28;20306;-66
2023/09/12 04:07:30;;;;;;;9.27;4.88;;;;;;;17.30;63.21;100106.94;5078131;28;20036;-64
2023/09/12 04:09:55;;;;;;;12.13;6.13;;;;;;;17.30;63.27;100107.75;5078257;28;20065;-63
2023/09/12 04:12:20;;;;;;;9.05;4.82;;;;;;;17.30;63.63;100107.75;5077664;28;20036;-66
2023/09/12 04:14:46;;;;;;;9.48;4.15;;;;;;;17.26;63.82;100119.88;5078740;28;20032;-63
2023/09/12 04:17:12;;;;;;;6.63;4.25;;;;;;;17.26;63.99;100111.84;5077929;28;20051;-64
2023/09/12 04:19:37;;;;;;;10.90;4.32;;;;;;;17.19;64.84;100114.50;5077041;28;20055;-66
2023/09/12 04:22:04;;;;;;;8.13;4.45;;;;;;;17.21;65.22;100109.78;5078105;28;20223;-64
2023/09/12 04:24:29;;;;;;;10.90;4.68;;;;;;;17.14;65.01;100103.56;5077550;28;20037;-64
2023/09/12 04:26:55;;;;;;;11.15;5.18;;;;;;;17.23;65.19;100109.56;5077160;28;20063;-65
2023/09/12 04:29:20;;;;;;;16.30;5.45;;;;;;;17.19;65.87;100109.13;5077717;28;20344;-64
2023/09/12 04:31:46;;;;;;;17.25;6.03;;;;;;;17.13;66.32;100103.75;5079310;28;20043;-65
2023/09/12 04:34:11;;;;;;;12.10;4.88;;;;;;;17.19;67.12;100108.31;5078629;28;20045;-66
2023/09/12 04:36:36;;;;;;;12.07;5.13;;;;;;;17.28;67.10;100114.34;5078064;28;20248;-66
2023/09/12 04:39:02;;;;;;;13.57;5.03;;;;;;;17.36;66.66;100111.50;5077606;28;20036;-66
2023/09/12 04:41:27;;;;;;;7.00;4.03;;;;;;;17.41;66.23;100109.88;5077415;28;20038;-63
2023/09/12 04:43:53;;;;;;;10.50;4.60;;;;;;;17.29;66.64;100116.81;5077507;28;20237;-66
2023/09/12 04:46:18;;;;;;;9.13;4.38;;;;;;;17.34;66.62;100113.56;5076872;28;20346;-64
2023/09/12 04:48:43;;;;;;;4.75;3.47;;;;;;;17.38;66.69;100120.16;5078304;28;20043;-66
2023/09/12 04:51:09;;;;;;;8.43;3.53;;;;;;;17.36;66.66;100116.84;5077218;28;20316;-66
2023/09/12 04:53:35;;;;;;;6.88;4.22;;;;;;;17.20;67.23;100113.47;5078646;28;20036;-66
2023/09/12 04:56:04;;;;;;;8.77;3.42;;;;;;;17.35;67.32;100120.56;5077899;28;20036;-66
2023/09/12 04:58:30;;;;;;;6.15;2.95;;;;;;;17.45;67.14;100116.50;5076024;28;20032;-64
2023/09/12 05:00:55;;;;;;;9.65;3.25;;;;;;;17.51;67.40;100120.25;5078018;28;20147;-64
2023/09/12 05:03:22;;;;;;;5.28;2.90;;;;;;;17.61;67.10;100117.19;5077788;28;20033;-63
2023/09/12 05:05:48;;;;;;;10.23;3.50;;;;;;;17.54;67.28;100115.31;5077732;28;20153;-63
2023/09/12 05:08:13;;;;;;;6.78;5.15;;;;;;;17.66;67.02;100120.97;5074523;28;20056;-64
2023/09/12 05:10:39;;;;;;;5.63;3.55;;;;;;;17.66;66.99;100115.59;5076381;28;20070;-64
2023/09/12 05:13:05;;;;;;;8.93;3.67;;;;;;;17.82;66.87;100115.28;5076187;28;20033;-66
2023/09/12 05:15:30;;;;;;;10.13;7.47;;;;;;;17.93;66.99;100121.09;5075659;28;20055;-66
2023/09/12 05:17:56;;;;;;;8.43;3.50;;;;;;;17.79;68.04;100112.19;5075777;28;20036;-64
2023/09/12 05:20:21;;;;;;;6.45;2.97;;;;;;;17.73;67.27;100094.25;5074693;28;20032;-64
2023/09/12 05:22:47;;;;;;;4.53;2.85;;;;;;;18.13;66.79;100114.78;5076219;28;20371;-66
2023/09/12 05:25:12;;;;;;;4.68;3.00;;;;;;;18.46;65.69;100114.03;5075311;28;20241;-64
2023/09/12 05:27:37;;;;;;;9.13;6.85;;;;;;;18.67;64.02;100121.91;5075419;28;20048;-66
2023/09/12 05:30:03;;;;;;;9.65;3.42;;;;;;;18.92;63.41;100115.97;5076584;28;20269;-67
2023/09/12 05:32:29;;;;;;;4.60;2.85;;;;;;;19.04;62.64;100111.63;5075619;28;20048;-63
2023/09/12 05:34:54;;;;;;;3.50;2.70;;;;;;;19.08;61.90;100118.22;5075110;28;20039;-64
2023/09/12 05:37:20;;;;;;;3.55;3.25;;;;;;;19.05;62.76;100114.09;5074787;28;20069;-66
2023/09/12 05:39:46;;;;;;;5.32;3.38;;;;;;;19.17;62.27;100108.09;5074791;28;21718;-64
2023/09/12 05:42:12;;;;;;;5.30;3.80;;;;;;;19.24;62.52;100114.28;5075428;28;20349;-64
2023/09/12 05:44:37;;;;;;;5.25;3.63;;;;;;;19.46;61.72;100113.81;5075131;28;20210;-66
2023/09/12 05:47:03;;;;;;;4.80;3.25;;;;;;;19.59;62.09;100114.84;5075785;28;20036;-64
2023/09/12 05:49:28;;;;;;;7.60;4.35;;;;;;;19.52;61.20;100114.88;5075506;28;20048;-66
2023/09/12 05:51:54;;;;;;;6.50;4.43;;;;;;;19.68;61.36;100110.88;5065753;28;20045;-66
2023/09/12 05:54:19;;;;;;;9.43;3.85;;;;;;;19.81;60.77;100105.50;5055306;28;20210;-64
2023/09/12 05:56:45;;;;;;;5.75;4.25;;;;;;;19.90;59.81;100104.22;5055106;28;20264;-66
2023/09/12 05:59:10;;;;;;;5.65;3.78;;;;;;;20.07;58.49;100104.53;5055285;28;20250;-64
2023/09/12 06:01:36;;;;;;;10.48;5.38;;;;;;;20.09;58.88;100107.84;5055377;28;20032;-64
2023/09/12 06:04:01;;;;;;;12.50;4.32;;;;;;;20.28;58.47;100103.38;5056028;28;20097;-66
2023/09/12 06:06:27;;;;;;;7.90;4.57;;;;;;;20.35;57.87;100107.69;5054877;28;20041;-64
2023/09/12 06:08:53;;;;;;;6.32;4.07;;;;;;;20.35;57.97;100112.22;5055199;28;20035;-66
2023/09/12 06:11:19;;;;;;;6.93;4.05;;;;;;;20.64;57.48;100114.34;5055162;28;20146;-64
2023/09/12 06:13:44;;;;;;;6.78;3.90;;;;;;;20.79;56.96;100107.81;5055375;28;20352;-66
2023/09/12 06:16:09;;;;;;;5.47;3.50;;;;;;;20.71;55.55;100114.28;5053804;28;20031;-66
2023/09/12 06:18:35;;;;;;;5.07;3.20;;;;;;;20.40;55.46;100121.31;5054934;28;20049;-66
2023/09/12 06:21:06;;;;;;;7.00;3.50;;;;;;;20.81;54.93;100129.97;5055069;28;20302;-65
2023/09/12 06:23:31;;;;;;;7.35;3.83;;;;;;;21.02;54.79;100118.81;5055515;28;20037;-66
2023/09/12 06:25:57;;;;;;;5.10;3.53;;;;;;;21.18;54.70;100122.81;5056505;28;20222;-66
2023/09/12 06:28:30;;;;;;;5.53;3.45;;;;;;;21.24;54.68;100122.78;5055618;28;20032;-65
2023/09/12 06:30:57;;;;;;;7.95;3.90;;;;;;;21.36;54.14;100122.84;5055247;28;20037;-64
2023/09/12 06:33:22;;;;;;;7.05;3.45;;;;;;;21.53;53.81;100131.19;5054985;28;20116;-66
2023/09/12 06:35:49;;;;;;;5.38;3.30;;;;;;;21.72;54.22;100121.22;5054398;28;20037;-66
2023/09/12 06:38:15;;;;;;;8.10;3.63;;;;;;;21.59;53.65;100120.31;5054583;28;20048;-66
2023/09/12 06:40:42;;;;;;;15.18;7.82;;;;;;;21.87;53.12;100127.06;5054426;28;20052;-64
2023/09/12 06:43:08;;;;;;;5.38;3.75;;;;;;;21.98;52.11;100127.13;5054726;28;20045;-64
2023/09/12 06:45:36;;;;;;;5.40;2.78;;;;;;;22.06;51.94;100127.91;5055212;28;20047;-65
2023/09/12 06:48:02;;;;;;;5.30;2.85;;;;;;;22.06;52.47;100127.91;5055659;28;20029;-67
2023/09/12 06:50:27;;;;;;;3.35;2.70;;;;;;;22.29;51.57;100125.31;5057782;28;20039;-66
2023/09/12 06:52:53;;;;;;;4.25;2.22;;;;;;;22.48;50.44;100129.59;5078277;28;20056;-64
2023/09/12 06:55:18;;;;;;;4.20;2.60;;;;;;;22.51;48.86;100126.44;5080933;28;20391;-66
2023/09/12 06:57:45;;;;;;;3.85;2.20;;;;;;;22.52;48.46;100127.25;5079879;28;20055;-66
2023/09/12 07:00:11;;;;;;;4.78;1.90;;;;;;;22.66;48.92;100130.56;5079116;28;20830;-66
2023/09/12 07:02:36;;;;;;;3.08;2.10;;;;;;;22.66;47.32;100123.28;5079083;28;20040;-66
2023/09/12 07:05:03;;;;;;;5.05;2.05;;;;;;;22.87;46.66;100122.78;5078335;28;20028;-65
2023/09/12 07:07:29;;;;;;;4.18;2.08;;;;;;;22.92;46.42;100124.81;5078699;28;20024;-66
2023/09/12 07:09:54;;;;;;;8.70;2.53;;;;;;;22.97;45.85;100118.69;5078668;28;20047;-66
2023/09/12 07:12:20;;;;;;;4.82;2.47;;;;;;;23.00;45.52;100124.44;5078574;28;20302;-67
2023/09/12 07:14:45;;;;;;;3.40;2.90;;;;;;;23.14;45.69;100125.03;5078227;28;20257;-66
2023/09/12 07:17:11;;;;;;;4.32;2.20;;;;;;;23.22;45.52;100120.09;5078283;28;20207;-66
2023/09/12 07:19:36;;;;;;;6.70;2.45;;;;;;;23.15;45.68;100123.97;5077374;28;20293;-64
2023/09/12 07:22:01;;;;;;;3.08;2.38;;;;;;;23.48;45.91;100117.97;5077825;28;20338;-65
2023/09/12 07:24:27;;;;;;;4.20;2.08;;;;;;;23.65;43.80;100118.09;5077599;28;20059;-64
2023/09/12 07:26:53;;;;;;;3.58;2.15;;;;;;;23.35;43.44;100105.53;5077810;28;20070;-64
2023/09/12 07:29:19;;;;;;;5.40;2.88;;;;;;;23.47;43.91;100113.63;5078193;28;20211;-64
2023/09/12 07:31:44;;;;;;;3.47;2.08;;;;;;;23.81;43.63;100111.94;5077549;28;20117;-67
2023/09/12 07:34:11;;;;;;;4.85;2.20;;;;;;;23.75;42.98;100105.59;5078081;28;20044;-66
2023/09/12 07:36:37;;;;;;;3.78;2.00;;;;;;;23.83;42.57;100113.34;5077711;28;20498;-66
2023/09/12 07:39:03;;;;;;;2.47;2.28;;;;;;;24.04;41.23;100106.47;5076222;28;20301;-64
2023/09/12 07:41:29;;;;;;;4.38;1.80;;;;;;;24.15;41.08;100112.91;5078672;28;20028;-66
2023/09/12 07:43:55;;;;;;;3.80;2.30;;;;;;;24.22;42.13;100113.56;5077670;28;20028;-64
2023/09/12 07:46:20;;;;;;;5.15;3.22;;;;;;;24.47;42.27;100103.22;5076754;28;20040;-66
2023/09/12 07:48:46;;;;;;;6.38;5.78;;;;;;;24.59;41.70;100105.88;5075778;28;20316;-66
2023/09/12 07:51:14;;;;;;;2.53;2.33;;;;;;;24.52;40.17;100105.22;5074415;28;20060;-65
2023/09/12 07:53:39;;;;;;;3.67;1.95;;;;;;;24.54;39.87;100111.19;5057374;28;20495;-64
2023/09/12 07:56:05;;;;;;;5.50;3.25;;;;;;;24.54;40.40;100103.06;5056451;28;20052;-65
2023/09/12 07:58:30;;;;;;;3.30;2.45;;;;;;;24.66;39.77;100105.72;5056444;28;20268;-67
2023/09/12 08:00:56;;;;;;;5.60;2.20;;;;;;;24.91;40.11;100102.59;5054680;28;20037;-66
2023/09/12 08:03:21;;;;;;;4.55;2.70;;;;;;;24.96;39.56;100097.25;5055390;28;20029;-63
2023/09/12 08:05:57;;;;;;;3.60;3.38;;;;;;;24.93;38.96;100105.88;5055848;28;20040;-64
2023/09/12 08:08:23;;;;;;;2.92;2.60;;;;;;;25.03;38.98;100101.50;5055967;28;20036;-67
2023/09/12 08:10:49;;;;;;;2.83;2.25;;;;;;;25.14;38.13;100097.03;5056358;28;20394;-64
2023/09/12 08:13:15;;;;;;;2.92;2.70;;;;;;;24.93;39.20;100093.16;5056312;28;20352;-66
2023/09/12 08:15:40;;;;;;;5.03;4.28;;;;;;;25.01;40.30;100094.69;5056811;28;20036;-65
2023/09/12 08:18:06;;;;;;;5.25;2.70;;;;;;;25.23;38.46;100095.53;5056640;28;20041;-67
2023/09/12 08:20:31;;;;;;;4.95;3.30;;;;;;;25.41;38.68;100087.13;5056618;28;20041;-67
2023/09/12 08:22:57;;;;;;;4.80;1.85;;;;;;;25.35;37.36;100085.41;5056806;28;20035;-64
2023/09/12 08:25:23;;;;;;;5.20;2.10;;;;;;;25.45;37.54;100084.72;5056834;28;20413;-67
2023/09/12 08:27:48;;;;;;;4.57;2.95;;;;;;;25.49;37.97;100083.16;5056855;28;20036;-64
2023/09/12 08:30:15;;;;;;;4.13;2.55;;;;;;;25.50;37.41;100082.09;5056911;28;20036;-64
2023/09/12 08:32:43;;;;;;;3.00;2.17;;;;;;;25.59;36.00;100079.75;5056837;28;20040;-64
2023/09/12 08:35:12;;;;;;;7.93;2.15;;;;;;;25.67;36.66;100084.75;5056585;28;20353;-67
2023/09/12 08:37:40;;;;;;;3.15;2.55;;;;;;;25.72;36.17;100077.50;5056500;28;20033;-63
2023/09/12 08:40:08;;;;;;;2.60;2.20;;;;;;;25.77;35.74;100074.03;5055991;28;20353;-65
2023/09/12 08:42:40;;;;;;;5.65;2.10;;;;;;;25.84;36.60;100068.41;5056980;28;20055;-65
2023/09/12 08:45:16;;;;;;;3.65;2.10;;;;;;;25.87;36.97;100070.63;5054910;28;20388;-67
2023/09/12 08:47:43;;;;;;;4.07;1.90;;;;;;;25.86;37.04;100072.50;5056390;28;20037;-64
2023/09/12 08:50:13;;;;;;;10.43;2.25;;;;;;;25.95;36.08;100062.03;5054101;28;20040;-66
2023/09/12 08:52:43;;;;;;;5.93;1.92;;;;;;;25.93;36.41;100061.47;5072114;28;20087;-64
2023/09/12 08:55:10;;;;;;;2.95;1.70;;;;;;;25.92;37.17;100066.06;5074703;28;20037;-67
2023/09/12 08:57:38;;;;;;;2.92;1.67;;;;;;;26.00;35.65;100067.50;5074534;28;20064;-67
2023/09/12 09:00:06;;;;;;;3.05;1.70;;;;;;;26.05;34.68;100059.44;5074887;28;20036;-67
2023/09/12 09:02:35;;;;;;;4.20;1.73;;;;;;;26.14;35.55;100060.63;5075005;28;20032;-67
2023/09/12 09:05:05;;;;;;;3.85;3.50;;;;;;;26.22;35.95;100065.59;5076518;28;20372;-64
2023/09/12 09:07:39;;;;;;;4.53;2.03;;;;;;;26.14;35.44;100063.34;5076101;28;20024;-65
2023/09/12 09:10:07;;;;;;;5.53;2.33;;;;;;;26.07;36.11;100060.81;5075785;28;20154;-67
2023/09/12 09:12:33;;;;;;;2.50;1.67;;;;;;;26.11;35.39;100060.31;5074655;28;20047;-64
2023/09/12 09:14:59;;;;;;;2.55;1.75;;;;;;;26.10;35.91;100059.50;5075878;28;20036;-66
2023/09/12 09:17:26;;;;;;;4.40;1.88;;;;;;;26.02;35.31;100049.91;5076014;28;20300;-67
2023/09/12 09:19:51;;;;;;;3.38;2.13;;;;;;;26.05;34.93;100054.03;5075625;28;20036;-64
2023/09/12 09:22:17;;;;;;;3.60;2.10;;;;;;;25.97;35.15;100054.44;5076162;28;20052;-64
2023/09/12 09:24:42;;;;;;;4.30;2.35;;;;;;;25.93;35.69;100042.47;5075802;28;20044;-65
2023/09/12 09:27:08;;;;;;;4.10;2.15;;;;;;;25.96;35.32;100047.38;5076440;28;20059;-64
2023/09/12 09:29:46;;;;;;;2.58;1.88;;;;;;;25.84;36.38;100039.38;5076893;28;20059;-65
2023/09/12 09:32:18;;;;;;;6.03;2.10;;;;;;;25.85;36.04;100037.50;5076271;28;20107;-64
2023/09/12 09:34:44;;;;;;;2.72;2.20;;;;;;;25.82;37.52;100033.41;5075352;28;20111;-67
2023/09/12 09:37:10;;;;;;;4.97;1.90;;;;;;;25.81;35.67;100034.47;5075651;28;20047;-64
2023/09/12 09:39:35;;;;;;;2.45;1.60;;;;;;;25.75;37.38;100035.50;5075353;28;20114;-66
2023/09/12 09:42:01;;;;;;;4.53;1.98;;;;;;;25.83;37.33;100024.19;5075380;28;20117;-64
2023/09/12 09:44:28;;;;;;;2.67;1.50;;;;;;;25.84;36.57;100025.81;5075193;28;20055;-67
2023/09/12 09:47:02;;;;;;;2.92;1.58;;;;;;;25.79;36.18;100017.63;5075231;28;20024;-67
2023/09/12 09:49:31;;;;;;;2.92;1.30;;;;;;;25.81;34.03;100022.81;5074291;28;20222;-64
2023/09/12 09:51:58;;;;;;;1.50;1.40;;;;;;;25.75;34.53;100019.22;5064154;28;20281;-64
2023/09/12 09:54:25;;;;;;;4.60;1.60;;;;;;;25.71;35.60;100018.09;5055199;28;20045;-64
2023/09/12 09:56:56;;;;;;;3.63;2.00;;;;;;;25.73;35.72;100022.19;5055013;28;20044;-67
2023/09/12 09:59:23;;;;;;;2.70;1.92;;;;;;;25.72;37.91;100007.00;5055402;28;20044;-66
2023/09/12 10:01:53;;;;;;;3.17;1.50;;;;;;;25.76;38.82;100013.53;5054967;28;20040;-67
2023/09/12 10:04:20;;;;;;;2.05;1.77;;;;;;;25.80;36.35;100021.16;5055244;28;20025;-67
2023/09/12 10:06:46;;;;;;;2.50;2.30;;;;;;;25.87;37.08;100008.22;5055607;28;20040;-65
2023/09/12 10:09:16;;;;;;;2.83;1.80;;;;;;;25.96;37.29;100006.69;5055695;28;20029;-65
2023/09/12 10:11:46;;;;;;;3.70;1.75;;;;;;;26.07;37.45;100011.97;5055484;28;20048;-64
2023/09/12 10:14:12;;;;;;;3.47;1.98;;;;;;;26.19;37.71;100008.28;5055694;28;20299;-66
2023/09/12 10:17:04;;;;;;;5.60;1.90;;;;;;;26.22;35.01;100003.16;5054999;28;20408;-65
2023/09/12 10:19:38;;;;;;;3.03;2.00;;;;;;;26.17;34.30;99994.16;5050931;28;20059;-67
2023/09/12 10:22:09;;;;;;;2.42;1.70;;;;;;;26.18;34.29;99999.31;5058831;28;20029;-67
2023/09/12 10:24:36;;;;;;;3.20;1.95;;;;;;;26.15;32.87;99999.03;5054217;28;20032;-64
2023/09/12 10:27:05;;;;;;;6.38;2.20;;;;;;;26.06;34.17;99987.81;5054776;28;20358;-67
2023/09/12 10:29:31;;;;;;;3.40;2.17;;;;;;;26.05;34.04;99992.44;5054805;28;20037;-64
2023/09/12 10:31:57;;;;;;;2.50;2.20;;;;;;;26.06;35.09;99985.09;5054909;28;20074;-67
2023/09/12 10:34:25;;;;;;;7.95;2.20;;;;;;;26.11;35.26;99985.16;5054601;28;20037;-65
2023/09/12 10:36:51;;;;;;;3.22;1.90;;;;;;;26.22;36.21;99977.91;5053654;28;20033;-65
2023/09/12 10:39:20;;;;;;;7.45;2.22;;;;;;;26.28;36.33;99974.97;5055894;28;20029;-67
2023/09/12 10:41:46;;;;;;;4.25;3.08;;;;;;;26.39;36.01;99973.19;5054286;28;20049;-67
2023/09/12 10:44:16;;;;;;;4.13;1.98;;;;;;;26.49;35.94;99973.25;5054370;28;20036;-64
2023/09/12 10:46:43;;;;;;;5.00;2.38;;;;;;;26.50;35.27;99969.47;5054056;28;20755;-64
2023/09/12 10:49:13;;;;;;;2.70;2.20;;;;;;;26.50;34.72;99958.59;5054148;28;20439;-67
2023/09/12 10:51:43;;;;;;;3.50;2.13;;;;;;;26.47;35.42;99964.56;5063178;28;20107;-67
2023/09/12 10:54:12;;;;;;;2.60;2.08;;;;;;;26.40;34.42;99959.34;5074389;28;20123;-67
2023/09/12 10:56:37;;;;;;;4.80;2.17;;;;;;;26.42;34.52;99956.38;5074137;28;20032;-65
2023/09/12 10:59:12;;;;;;;3.70;2.50;;;;;;;26.37;34.37;99950.91;5057444;28;20059;-64
2023/09/12 11:01:46;;;;;;;3.40;2.10;;;;;;;26.44;36.28;99948.78;5074405;28;20032;-66
2023/09/12 11:04:23;;;;;;;4.50;2.40;;;;;;;26.48;36.46;99943.66;5073822;28;20063;-64
2023/09/12 11:06:50;;;;;;;3.15;2.20;;;;;;;26.47;36.93;99931.97;5074415;28;20064;-66
2023/09/12 11:09:18;;;;;;;2.63;2.20;;;;;;;26.55;35.70;99934.19;5074744;28;20048;-66
2023/09/12 11:11:46;;;;;;;4.53;2.42;;;;;;;26.61;37.17;99932.31;5074177;28;20365;-67
2023/09/12 11:14:12;;;;;;;4.70;2.47;;;;;;;26.69;33.96;99934.53;5074831;28;20273;-66
2023/09/12 11:16:38;;;;;;;4.68;2.28;;;;;;;26.67;33.62;99925.84;5074121;28;20036;-67
2023/09/12 11:19:26;;;;;;;2.60;2.20;;;;;;;26.69;34.34;99929.94;5075037;28;20455;-64
2023/09/12 11:21:53;;;;;;;4.97;2.42;;;;;;;26.66;34.81;99919.59;5074962;28;20135;-64